Terminal Aerodrome Forecast
Issued by NWS

Current Version | Previous Version | Text Only | Print | Product List | Glossary On
Versions: 1 2 3 4 5 6 7 8 9 10 11 12 13 14 15 16 17 18 19 20 21 22 23
000
FTUS41 KOKX 110520
TAFSWF
TAF
KSWF 110520Z 1106/1212 VRB04KT P6SM BKN050
     FM111200 32004KT P6SM SCT060 BKN120
     FM111800 29008KT P6SM SCT060
     FM120000 35008KT P6SM FEW060 BKN250
     AMD NOT SKED=

USA.gov is the U.S. government's official web portal to all federal, state and local government web resources and services.